Time;durP1;ratioP1;P1;durP2;ratioP2;P2;SDS_P1;SDS_P2;PMS_P1;PMS_P2;Temp;Humidity;BMP_temperature;BMP_pressure;BME280_temperature;BME280_humidity;BME280_pressure;Samples;Min_cycle;Max_cycle;Signal;HPM_P1;HPM_P2
2021/12/14 00:00:17;;;;;;;13.77;5.82;;;;;;;;;;5035183;28;20025;-71
2021/12/14 00:02:44;;;;;;;7.78;3.70;;;;;;;;;;5033930;28;20089;-71
2021/12/14 00:05:11;;;;;;;7.63;3.92;;;;;;;;;;5033478;28;20474;-71
2021/12/14 00:07:37;;;;;;;8.38;4.90;;;;;;;;;;5035155;28;20025;-71
2021/12/14 00:10:15;;;;;;;11.02;4.20;;;;;;;;;;5035085;28;20031;-71
2021/12/14 00:12:56;;;;;;;6.88;3.80;;;;;;;;;;5034663;28;20108;-71
2021/12/14 00:15:23;;;;;;;8.07;4.13;;;;;;;;;;5035196;28;20036;-71
2021/12/14 00:17:52;;;;;;;5.93;3.40;;;;;;;;;;5034343;28;20056;-71
2021/12/14 00:20:23;;;;;;;9.07;4.10;;;;;;;;;;5034918;28;20489;-71
2021/12/14 00:25:32;;;;;;;8.57;3.72;;;;;;;;;;5034453;28;20026;-71
2021/12/14 00:28:00;;;;;;;7.88;4.15;;;;;;;;;;5034881;28;20025;-71
2021/12/14 00:30:27;;;;;;;7.15;4.00;;;;;;;;;;5034689;28;20030;-72
2021/12/14 00:32:54;;;;;;;6.10;3.40;;;;;;;;;;5034266;28;20112;-71
2021/12/14 00:35:20;;;;;;;6.53;3.55;;;;;;;;;;5034815;28;20409;-71
2021/12/14 00:37:51;;;;;;;6.47;3.50;;;;;;;;;;5034844;28;20025;-71
2021/12/14 00:40:23;;;;;;;7.65;3.58;;;;;;;;;;5034097;28;20478;-71
2021/12/14 00:42:49;;;;;;;8.50;4.32;;;;;;;;;;5034473;28;20064;-72
2021/12/14 00:45:17;;;;;;;7.55;4.10;;;;;;;;;;5034367;28;20018;-71
2021/12/14 00:47:43;;;;;;;8.20;4.65;;;;;;;;;;5032483;28;20108;-71
2021/12/14 00:50:10;;;;;;;8.63;4.60;;;;;;;;;;5034662;28;20097;-71
2021/12/14 00:52:36;;;;;;;8.40;3.40;;;;;;;;;;5033950;28;20474;-71
2021/12/14 00:55:05;;;;;;;6.50;3.92;;;;;;;;;;5034200;28;20097;-71
2021/12/14 00:57:31;;;;;;;6.45;3.50;;;;;;;;;;5034334;28;20025;-71
2021/12/14 00:59:57;;;;;;;9.48;4.60;;;;;;;;;;5033799;28;20067;-71
2021/12/14 01:02:24;;;;;;;6.32;3.40;;;;;;;;;;5034079;28;20108;-71
2021/12/14 01:04:59;;;;;;;8.40;3.67;;;;;;;;;;5034389;28;20025;-71
2021/12/14 01:07:27;;;;;;;6.82;3.58;;;;;;;;;;5033575;28;20032;-71
2021/12/14 01:09:56;;;;;;;6.18;3.67;;;;;;;;;;5034030;28;20381;-71
2021/12/14 01:12:34;;;;;;;6.00;2.97;;;;;;;;;;5034023;28;20029;-71
2021/12/14 01:15:23;;;;;;;6.50;3.60;;;;;;;;;;5033667;28;20029;-71
2021/12/14 01:18:01;;;;;;;7.13;3.67;;;;;;;;;;5033575;28;20152;-71
2021/12/14 01:20:32;;;;;;;5.15;3.05;;;;;;;;;;5033906;28;20034;-71
2021/12/14 01:23:02;;;;;;;6.40;2.92;;;;;;;;;;5033428;28;20386;-71
2021/12/14 01:25:33;;;;;;;6.53;2.85;;;;;;;;;;5033768;28;20417;-71
2021/12/14 01:28:03;;;;;;;7.07;3.42;;;;;;;;;;5032036;28;20049;-71
2021/12/14 01:30:36;;;;;;;5.63;2.75;;;;;;;;;;5033923;28;20488;-71
2021/12/14 01:33:05;;;;;;;5.35;2.83;;;;;;;;;;5033604;28;20033;-71
2021/12/14 01:35:33;;;;;;;7.20;3.20;;;;;;;;;;5033179;28;20022;-71
2021/12/14 01:40:54;;;;;;;6.07;3.17;;;;;;;;;;5033424;28;20041;-71
2021/12/14 01:43:24;;;;;;;6.40;3.33;;;;;;;;;;5033204;28;20037;-71
2021/12/14 01:45:50;;;;;;;6.93;3.40;;;;;;;;;;5033591;28;20041;-71
2021/12/14 01:48:16;;;;;;;6.50;3.17;;;;;;;;;;5033417;28;20112;-71
2021/12/14 01:50:45;;;;;;;10.57;2.95;;;;;;;;;;5033073;28;20079;-71
2021/12/14 01:53:13;;;;;;;9.05;3.25;;;;;;;;;;5033320;28;20025;-71
2021/12/14 01:55:40;;;;;;;4.50;2.55;;;;;;;;;;5033324;28;20066;-70
2021/12/14 01:58:08;;;;;;;5.18;2.45;;;;;;;;;;5032972;28;20029;-71
2021/12/14 02:00:55;;;;;;;6.55;2.63;;;;;;;;;;5035067;28;20501;-71
2021/12/14 02:03:27;;;;;;;6.18;2.65;;;;;;;;;;5036988;28;20100;-71
2021/12/14 02:05:53;;;;;;;4.25;2.55;;;;;;;;;;5037478;28;20389;-71
2021/12/14 02:08:22;;;;;;;5.95;2.80;;;;;;;;;;5037408;28;20140;-71
2021/12/14 02:10:49;;;;;;;5.80;2.50;;;;;;;;;;5036893;28;20599;-71
2021/12/14 02:13:26;;;;;;;5.07;2.38;;;;;;;;;;5037271;28;20026;-71
2021/12/14 02:15:52;;;;;;;4.72;2.42;;;;;;;;;;5037384;28;20033;-70
2021/12/14 02:18:19;;;;;;;6.85;2.83;;;;;;;;;;5036744;28;20515;-70
2021/12/14 02:20:52;;;;;;;4.35;2.40;;;;;;;;;;5036979;28;20113;-71
2021/12/14 02:23:20;;;;;;;5.22;2.85;;;;;;;;;;5037106;28;20036;-71
2021/12/14 02:25:47;;;;;;;6.63;2.20;;;;;;;;;;5036613;28;20017;-71
2021/12/14 02:28:17;;;;;;;5.15;2.53;;;;;;;;;;5037069;28;20025;-71
2021/12/14 02:30:44;;;;;;;6.00;3.10;;;;;;;;;;5037283;28;20026;-71
2021/12/14 02:33:12;;;;;;;5.65;2.97;;;;;;;;;;5036466;28;20022;-71
2021/12/14 02:35:38;;;;;;;6.28;2.35;;;;;;;;;;5036894;28;20068;-71
2021/12/14 02:38:07;;;;;;;6.05;2.97;;;;;;;;;;5036437;28;20105;-71
2021/12/14 02:40:53;;;;;;;6.63;2.17;;;;;;;;;;5036664;28;20033;-71
2021/12/14 02:43:31;;;;;;;6.20;3.10;;;;;;;;;;5036854;28;20025;-71
2021/12/14 02:46:21;;;;;;;6.30;3.03;;;;;;;;;;5036313;28;20056;-71
2021/12/14 02:48:50;;;;;;;6.20;2.95;;;;;;;;;;5031208;28;20040;-71
2021/12/14 02:51:36;;;;;;;7.00;3.20;;;;;;;;;;5036689;28;20049;-71
2021/12/14 02:54:09;;;;;;;4.57;2.65;;;;;;;;;;5035993;28;20060;-71
2021/12/14 02:56:36;;;;;;;6.55;3.55;;;;;;;;;;5036583;28;20528;-71
2021/12/14 02:59:07;;;;;;;5.38;2.97;;;;;;;;;;5036410;28;20037;-71
2021/12/14 03:01:34;;;;;;;5.95;2.67;;;;;;;;;;5036221;28;20043;-71
2021/12/14 03:04:02;;;;;;;7.78;3.72;;;;;;;;;;5036323;28;20029;-71
2021/12/14 03:06:30;;;;;;;6.45;3.38;;;;;;;;;;5035860;28;20333;-71
2021/12/14 03:09:08;;;;;;;6.47;3.00;;;;;;;;;;5036768;28;20043;-71
2021/12/14 03:11:35;;;;;;;6.13;2.92;;;;;;;;;;5036531;28;20053;-71
2021/12/14 03:14:02;;;;;;;6.97;2.92;;;;;;;;;;5035744;28;20417;-71
2021/12/14 03:16:31;;;;;;;6.95;3.28;;;;;;;;;;5036082;28;20025;-71
2021/12/14 03:18:59;;;;;;;7.13;3.20;;;;;;;;;;5036019;28;20505;-71
2021/12/14 03:21:27;;;;;;;6.93;3.50;;;;;;;;;;5035805;28;20041;-71
2021/12/14 03:23:55;;;;;;;8.60;4.35;;;;;;;;;;5034725;28;20029;-71
2021/12/14 03:26:23;;;;;;;5.38;2.70;;;;;;;;;;5035966;28;20466;-71
2021/12/14 03:28:52;;;;;;;7.80;4.18;;;;;;;;;;5035520;28;20018;-71
2021/12/14 03:31:21;;;;;;;6.35;3.60;;;;;;;;;;5035789;28;20022;-71
2021/12/14 03:33:51;;;;;;;9.43;4.28;;;;;;;;;;5035925;28;20021;-71
2021/12/14 03:36:22;;;;;;;7.32;3.63;;;;;;;;;;5035285;28;20021;-71
2021/12/14 03:38:51;;;;;;;9.07;4.22;;;;;;;;;;5035752;28;20108;-70
2021/12/14 03:41:22;;;;;;;9.02;4.35;;;;;;;;;;5035482;28;20109;-71
2021/12/14 03:43:58;;;;;;;10.60;5.00;;;;;;;;;;5035603;28;20474;-71
2021/12/14 03:46:25;;;;;;;10.57;5.10;;;;;;;;;;5035630;28;20030;-71
2021/12/14 03:48:52;;;;;;;7.97;4.68;;;;;;;;;;5035155;28;20083;-70
2021/12/14 03:51:20;;;;;;;11.27;5.15;;;;;;;;;;5035709;28;20386;-71
2021/12/14 03:53:48;;;;;;;8.45;4.45;;;;;;;;;;5035467;28;20045;-71
2021/12/14 03:56:14;;;;;;;10.27;4.95;;;;;;;;;;5034992;28;20029;-71
2021/12/14 03:58:42;;;;;;;10.38;4.25;;;;;;;;;;5034078;28;20049;-71
2021/12/14 04:01:14;;;;;;;10.00;4.50;;;;;;;;;;5033978;28;20033;-71
2021/12/14 04:03:41;;;;;;;8.90;4.63;;;;;;;;;;5035116;28;20045;-71
2021/12/14 04:06:08;;;;;;;9.40;4.65;;;;;;;;;;5035148;28;20026;-71
2021/12/14 04:08:35;;;;;;;7.60;4.25;;;;;;;;;;5035433;28;20068;-71
2021/12/14 04:11:02;;;;;;;9.18;3.67;;;;;;;;;;5034793;28;20489;-71
2021/12/14 04:13:35;;;;;;;7.90;3.90;;;;;;;;;;5035163;28;20033;-71
2021/12/14 04:16:01;;;;;;;7.97;4.33;;;;;;;;;;5035238;28;20100;-71
2021/12/14 04:18:28;;;;;;;7.78;4.40;;;;;;;;;;5034579;28;20124;-71
2021/12/14 04:20:55;;;;;;;8.18;4.05;;;;;;;;;;5034865;28;20088;-71
2021/12/14 04:23:24;;;;;;;9.45;4.57;;;;;;;;;;5034437;28;20107;-71
2021/12/14 04:25:52;;;;;;;9.05;4.57;;;;;;;;;;5034722;28;20026;-71
2021/12/14 04:28:21;;;;;;;8.55;4.00;;;;;;;;;;5034893;28;20121;-71
2021/12/14 04:30:48;;;;;;;11.73;4.57;;;;;;;;;;5034623;28;20444;-71
2021/12/14 04:33:16;;;;;;;8.27;4.63;;;;;;;;;;5035146;28;20032;-71
2021/12/14 04:35:44;;;;;;;8.70;4.65;;;;;;;;;;5034917;28;20033;-71
2021/12/14 04:38:20;;;;;;;8.77;4.88;;;;;;;;;;5034183;28;20518;-71
2021/12/14 04:52:00;;;;;;;9.13;4.82;;;;;;;;;;5034220;28;20047;-71
2021/12/14 04:54:50;;;;;;;8.00;4.18;;;;;;;;;;5034667;28;20340;-71
2021/12/14 04:57:25;;;;;;;7.22;4.00;;;;;;;;;;5028912;28;20482;-72
2021/12/14 04:59:52;;;;;;;8.98;4.38;;;;;;;;;;5033880;28;20105;-71
2021/12/14 05:02:21;;;;;;;8.73;4.32;;;;;;;;;;5032729;28;20041;-73
2021/12/14 05:04:47;;;;;;;7.22;4.32;;;;;;;;;;5034070;28;20021;-71
2021/12/14 05:09:52;;;;;;;9.40;4.07;;;;;;;;;;5034038;28;20120;-71
2021/12/14 05:12:23;;;;;;;8.57;4.05;;;;;;;;;;5033928;28;20021;-71
2021/12/14 05:14:50;;;;;;;9.57;4.40;;;;;;;;;;5033593;28;20029;-71
2021/12/14 05:17:22;;;;;;;8.75;4.47;;;;;;;;;;5033872;28;20028;-71
2021/12/14 05:19:50;;;;;;;7.82;3.95;;;;;;;;;;5033378;28;20072;-72
2021/12/14 05:22:22;;;;;;;7.05;3.97;;;;;;;;;;5033938;28;20033;-72
2021/12/14 05:24:50;;;;;;;8.68;4.35;;;;;;;;;;5033981;28;20028;-70
2021/12/14 05:27:23;;;;;;;7.53;3.88;;;;;;;;;;5033243;28;20036;-70
2021/12/14 05:29:49;;;;;;;9.43;4.73;;;;;;;;;;5034078;28;20018;-70
2021/12/14 05:32:17;;;;;;;7.80;4.60;;;;;;;;;;5033595;28;20094;-70
2021/12/14 05:34:46;;;;;;;7.38;3.88;;;;;;;;;;5032453;28;20381;-70
2021/12/14 05:37:17;;;;;;;11.05;4.70;;;;;;;;;;5033616;28;20028;-70
2021/12/14 05:45:10;;;;;;;10.93;5.15;;;;;;;;;;5033897;28;20485;-71
2021/12/14 05:47:41;;;;;;;7.40;4.15;;;;;;;;;;5033837;28;20486;-71
2021/12/14 05:50:08;;;;;;;9.02;5.00;;;;;;;;;;5033111;28;20096;-71
2021/12/14 05:52:34;;;;;;;8.40;4.72;;;;;;;;;;5033604;28;20032;-71
2021/12/14 05:55:00;;;;;;;9.02;3.88;;;;;;;;;;5032962;28;20458;-70
2021/12/14 05:57:27;;;;;;;6.32;3.13;;;;;;;;;;5033559;28;20490;-70
2021/12/14 05:59:54;;;;;;;8.23;4.05;;;;;;;;;;5033390;28;20075;-70
2021/12/14 06:02:23;;;;;;;6.80;4.25;;;;;;;;;;5032874;28;20072;-71
2021/12/14 06:04:51;;;;;;;11.27;4.95;;;;;;;;;;5033351;28;20105;-65
2021/12/14 06:07:18;;;;;;;6.93;4.22;;;;;;;;;;5031716;28;20025;-65
2021/12/14 06:09:49;;;;;;;11.45;4.18;;;;;;;;;;5032340;28;20037;-65
2021/12/14 06:12:26;;;;;;;7.18;3.92;;;;;;;;;;5032956;28;20498;-65
2021/12/14 06:14:55;;;;;;;16.15;5.10;;;;;;;;;;5031739;28;20040;-67
2021/12/14 06:17:33;;;;;;;9.35;4.55;;;;;;;;;;5031444;28;20377;-66
2021/12/14 06:20:13;;;;;;;11.77;6.55;;;;;;;;;;5027257;28;20054;-65
2021/12/14 06:22:40;;;;;;;12.20;5.97;;;;;;;;;;5032963;28;20059;-64
2021/12/14 06:25:11;;;;;;;16.30;9.98;;;;;;;;;;5017420;28;20026;-68
2021/12/14 06:27:38;;;;;;;13.73;6.72;;;;;;;;;;5012872;28;20030;-70
2021/12/14 06:30:08;;;;;;;14.65;6.30;;;;;;;;;;5012535;28;20080;-69
2021/12/14 06:32:38;;;;;;;13.15;7.00;;;;;;;;;;5013103;28;20096;-70
2021/12/14 06:35:10;;;;;;;16.63;8.07;;;;;;;;;;5013038;28;20097;-69
2021/12/14 06:40:11;;;;;;;18.10;9.80;;;;;;;;;;5010516;28;20471;-69
2021/12/14 06:42:40;;;;;;;15.07;8.60;;;;;;;;;;5029932;28;20037;-68
2021/12/14 06:45:10;;;;;;;11.52;7.50;;;;;;;;;;5029919;28;20025;-68
2021/12/14 06:47:36;;;;;;;15.07;9.23;;;;;;;;;;5034389;28;20030;-67
2021/12/14 06:50:04;;;;;;;13.13;8.00;;;;;;;;;;5034777;28;20032;-69
2021/12/14 06:52:31;;;;;;;10.35;5.53;;;;;;;;;;5035759;28;20017;-69
2021/12/14 06:54:57;;;;;;;10.25;5.55;;;;;;;;;;5035983;28;20102;-69
2021/12/14 06:57:23;;;;;;;11.95;6.93;;;;;;;;;;5036293;28;20026;-68
2021/12/14 06:59:49;;;;;;;13.60;6.85;;;;;;;;;;5027577;28;20053;-69
2021/12/14 07:02:18;;;;;;;11.40;5.75;;;;;;;;;;5035625;28;20510;-68
2021/12/14 07:04:49;;;;;;;10.98;5.95;;;;;;;;;;5030581;28;20099;-68
2021/12/14 07:07:18;;;;;;;11.60;6.47;;;;;;;;;;5034499;28;20021;-67
2021/12/14 07:09:46;;;;;;;10.45;4.82;;;;;;;;;;5035153;28;20033;-71
2021/12/14 07:12:16;;;;;;;13.82;7.30;;;;;;;;;;5034147;28;20025;-68
2021/12/14 07:15:02;;;;;;;15.43;7.70;;;;;;;;;;5033324;28;20071;-67
2021/12/14 07:17:29;;;;;;;11.75;5.82;;;;;;;;;;5032904;28;20026;-67
2021/12/14 07:20:09;;;;;;;14.43;7.03;;;;;;;;;;5030469;28;20080;-68
2021/12/14 07:22:40;;;;;;;11.60;6.40;;;;;;;;;;5034188;28;20037;-68
2021/12/14 07:25:13;;;;;;;14.27;7.47;;;;;;;;;;5034883;28;20482;-67
2021/12/14 07:27:44;;;;;;;9.57;5.83;;;;;;;;;;5034638;28;20029;-67
2021/12/14 07:30:10;;;;;;;13.38;7.25;;;;;;;;;;5033871;28;20345;-66
2021/12/14 07:32:45;;;;;;;11.65;6.55;;;;;;;;;;5034579;28;20021;-67
2021/12/14 07:35:27;;;;;;;12.77;8.18;;;;;;;;;;5034536;28;20029;-69
2021/12/14 07:37:54;;;;;;;13.95;6.45;;;;;;;;;;5032204;28;20018;-67
2021/12/14 07:40:22;;;;;;;11.20;5.88;;;;;;;;;;5033031;28;20125;-68
2021/12/14 07:42:48;;;;;;;11.43;6.53;;;;;;;;;;5032256;28;20033;-68
2021/12/14 07:45:23;;;;;;;15.30;7.30;;;;;;;;;;5032223;28;20033;-70
2021/12/14 07:47:51;;;;;;;12.07;7.10;;;;;;;;;;5031831;28;20473;-67
2021/12/14 07:50:17;;;;;;;14.75;6.85;;;;;;;;;;5032548;28;20026;-68
2021/12/14 07:52:43;;;;;;;13.45;7.05;;;;;;;;;;5034029;28;20417;-67
2021/12/14 07:55:14;;;;;;;13.73;7.15;;;;;;;;;;5029968;28;20021;-67
2021/12/14 07:57:41;;;;;;;10.43;5.63;;;;;;;;;;5030150;28;20026;-67
2021/12/14 08:00:29;;;;;;;12.93;6.65;;;;;;;;;;5034752;28;20028;-68
2021/12/14 08:02:57;;;;;;;11.07;5.28;;;;;;;;;;5032594;28;20029;-67
2021/12/14 08:05:33;;;;;;;17.75;7.07;;;;;;;;;;5034037;28;20029;-68
2021/12/14 08:07:59;;;;;;;15.50;8.50;;;;;;;;;;5034650;28;20112;-67
2021/12/14 08:10:29;;;;;;;14.25;8.00;;;;;;;;;;5034329;28;20474;-67
2021/12/14 08:12:57;;;;;;;18.13;9.10;;;;;;;;;;5033279;28;20025;-67
2021/12/14 08:15:29;;;;;;;16.63;10.45;;;;;;;;;;5034522;28;20096;-68
2021/12/14 08:18:13;;;;;;;14.23;8.95;;;;;;;;;;5033908;28;20033;-68
2021/12/14 08:20:48;;;;;;;12.88;7.32;;;;;;;;;;5033903;28;20029;-68
2021/12/14 08:23:17;;;;;;;13.75;7.05;;;;;;;;;;5034185;28;20026;-67
2021/12/14 08:25:43;;;;;;;16.73;9.27;;;;;;;;;;5034280;28;20026;-69
2021/12/14 08:28:10;;;;;;;16.35;8.93;;;;;;;;;;5034462;28;20018;-68
2021/12/14 08:30:37;;;;;;;16.20;8.10;;;;;;;;;;5033795;28;20025;-67
2021/12/14 08:33:07;;;;;;;16.33;9.20;;;;;;;;;;5034289;28;20026;-67
2021/12/14 08:35:33;;;;;;;14.75;8.70;;;;;;;;;;5023757;28;20486;-67
2021/12/14 08:38:03;;;;;;;12.38;7.28;;;;;;;;;;5024814;28;20033;-68
2021/12/14 08:40:32;;;;;;;13.23;6.55;;;;;;;;;;5014170;28;20164;-68
2021/12/14 08:43:07;;;;;;;15.65;7.63;;;;;;;;;;5012434;28;20026;-68
2021/12/14 08:45:39;;;;;;;15.75;8.70;;;;;;;;;;5012083;28;20100;-68
2021/12/14 08:48:07;;;;;;;16.23;8.27;;;;;;;;;;5012888;28;20433;-68
2021/12/14 08:50:41;;;;;;;12.55;7.07;;;;;;;;;;5012880;28;20032;-67
2021/12/14 08:53:08;;;;;;;15.05;9.02;;;;;;;;;;5013281;28;20024;-67
2021/12/14 08:55:36;;;;;;;18.88;11.27;;;;;;;;;;5012098;28;20029;-67
2021/12/14 08:58:03;;;;;;;15.25;7.28;;;;;;;;;;5013444;28;20073;-67
2021/12/14 09:00:36;;;;;;;10.63;6.13;;;;;;;;;;5013820;28;20112;-67
2021/12/14 09:03:03;;;;;;;13.07;8.30;;;;;;;;;;5029534;28;20497;-66
2021/12/14 09:05:39;;;;;;;15.27;8.80;;;;;;;;;;5033289;28;20028;-68
2021/12/14 09:08:05;;;;;;;10.80;5.20;;;;;;;;;;5032434;28;20104;-68
2021/12/14 09:10:33;;;;;;;14.85;7.22;;;;;;;;;;5033479;28;20021;-69
2021/12/14 09:13:05;;;;;;;14.57;8.57;;;;;;;;;;5015813;28;20109;-69
2021/12/14 09:15:36;;;;;;;15.73;7.40;;;;;;;;;;5014103;28;20018;-71
2021/12/14 09:18:03;;;;;;;12.05;7.35;;;;;;;;;;5013597;28;20049;-67
2021/12/14 09:20:33;;;;;;;20.25;10.65;;;;;;;;;;5013220;28;20018;-69
2021/12/14 09:23:01;;;;;;;23.38;10.35;;;;;;;;;;5013687;28;20030;-70
2021/12/14 09:25:29;;;;;;;17.95;8.35;;;;;;;;;;5012365;28;20025;-69
2021/12/14 09:27:56;;;;;;;25.40;12.48;;;;;;;;;;5028439;28;20025;-69
2021/12/14 09:30:26;;;;;;;17.17;9.18;;;;;;;;;;5029537;28;20029;-70
2021/12/14 09:32:52;;;;;;;14.02;7.72;;;;;;;;;;5032242;28;20033;-71
2021/12/14 09:35:20;;;;;;;18.20;9.55;;;;;;;;;;5032820;28;20025;-70
2021/12/14 09:37:48;;;;;;;16.05;9.45;;;;;;;;;;5025164;28;20033;-68
2021/12/14 09:40:19;;;;;;;16.65;9.18;;;;;;;;;;5032296;28;20097;-70
2021/12/14 09:42:46;;;;;;;17.13;9.00;;;;;;;;;;5032375;28;20076;-69
2021/12/14 09:45:16;;;;;;;13.48;7.90;;;;;;;;;;5032258;28;20032;-70
2021/12/14 09:47:44;;;;;;;9.60;5.93;;;;;;;;;;5017127;28;20069;-70
2021/12/14 09:50:17;;;;;;;11.70;5.63;;;;;;;;;;5021306;28;20022;-72
2021/12/14 09:52:44;;;;;;;12.77;6.20;;;;;;;;;;5032503;28;20029;-69
2021/12/14 09:55:15;;;;;;;11.98;6.75;;;;;;;;;;5032199;28;20022;-69
2021/12/14 09:57:43;;;;;;;16.58;8.55;;;;;;;;;;5032981;28;20026;-68
2021/12/14 10:00:15;;;;;;;23.92;12.00;;;;;;;;;;5032093;28;20021;-67
2021/12/14 10:02:43;;;;;;;19.37;7.87;;;;;;;;;;5029209;28;20041;-69
2021/12/14 10:05:14;;;;;;;17.02;9.55;;;;;;;;;;5030591;28;20087;-67
2021/12/14 10:07:41;;;;;;;17.73;10.32;;;;;;;;;;5030414;28;20025;-68
2021/12/14 10:10:10;;;;;;;13.70;6.07;;;;;;;;;;5030319;28;20022;-69
2021/12/14 10:12:49;;;;;;;13.55;7.47;;;;;;;;;;5031320;28;20024;-70
2021/12/14 10:15:19;;;;;;;12.00;6.82;;;;;;;;;;5031269;28;20022;-69
2021/12/14 10:17:45;;;;;;;12.30;7.28;;;;;;;;;;5031177;28;20014;-70
2021/12/14 10:20:14;;;;;;;10.90;6.28;;;;;;;;;;5030744;28;20448;-69
2021/12/14 10:22:40;;;;;;;13.30;7.50;;;;;;;;;;5035257;28;20157;-69
2021/12/14 10:25:09;;;;;;;9.30;5.57;;;;;;;;;;5036472;28;20022;-68
2021/12/14 10:27:36;;;;;;;17.08;8.65;;;;;;;;;;5036191;28;20063;-69
2021/12/14 10:30:08;;;;;;;11.77;6.68;;;;;;;;;;5035718;28;20033;-68
2021/12/14 10:32:35;;;;;;;10.90;7.33;;;;;;;;;;5035923;28;20025;-69
2021/12/14 10:35:06;;;;;;;14.63;7.15;;;;;;;;;;5034583;28;20072;-69
2021/12/14 10:43:20;;;;;;;17.08;9.48;;;;;;;;;;5018115;28;20102;-69
2021/12/14 10:45:51;;;;;;;19.98;9.32;;;;;;;;;;5027839;28;20014;-68
2021/12/14 10:48:19;;;;;;;15.50;8.80;;;;;;;;;;5036160;28;20025;-68
2021/12/14 10:50:45;;;;;;;14.07;7.72;;;;;;;;;;5035700;28;20036;-67
2021/12/14 10:53:12;;;;;;;19.98;10.52;;;;;;;;;;5035382;28;20124;-68
2021/12/14 10:55:42;;;;;;;15.82;9.05;;;;;;;;;;5035995;28;20096;-69
2021/12/14 10:58:08;;;;;;;15.23;9.60;;;;;;;;;;5035561;28;20496;-69
2021/12/14 11:00:39;;;;;;;18.75;10.73;;;;;;;;;;5034085;28;20040;-68
2021/12/14 11:03:11;;;;;;;16.75;9.45;;;;;;;;;;5036046;28;20026;-68
2021/12/14 11:05:38;;;;;;;18.85;11.05;;;;;;;;;;5035542;28;20416;-68
2021/12/14 11:08:06;;;;;;;14.90;9.77;;;;;;;;;;5035474;28;20381;-66
2021/12/14 11:10:34;;;;;;;16.23;9.25;;;;;;;;;;5035256;28;20052;-68
2021/12/14 11:13:04;;;;;;;18.80;10.30;;;;;;;;;;5035073;28;20026;-68
2021/12/14 11:15:35;;;;;;;19.58;9.68;;;;;;;;;;5033482;28;20018;-68
2021/12/14 11:18:10;;;;;;;19.27;7.95;;;;;;;;;;5033855;28;20439;-70
2021/12/14 11:20:41;;;;;;;12.88;8.07;;;;;;;;;;5034746;28;20425;-70
2021/12/14 11:23:17;;;;;;;13.27;7.00;;;;;;;;;;5034556;28;20367;-68
2021/12/14 11:25:51;;;;;;;13.35;7.75;;;;;;;;;;5034850;28;20022;-68
2021/12/14 11:28:23;;;;;;;17.48;9.88;;;;;;;;;;5035416;28;20030;-69
2021/12/14 11:30:55;;;;;;;15.38;8.35;;;;;;;;;;5033462;28;20060;-69
2021/12/14 11:33:28;;;;;;;17.88;9.35;;;;;;;;;;5031770;28;20036;-68
2021/12/14 11:36:02;;;;;;;13.50;9.00;;;;;;;;;;5035409;28;20025;-69
2021/12/14 11:38:28;;;;;;;15.90;8.10;;;;;;;;;;5035358;28;20120;-69
2021/12/14 11:40:55;;;;;;;16.58;9.52;;;;;;;;;;5033848;28;20036;-69
2021/12/14 11:43:24;;;;;;;18.45;8.85;;;;;;;;;;5035311;28;20485;-69
2021/12/14 11:45:53;;;;;;;17.35;9.95;;;;;;;;;;5034467;28;20028;-70
2021/12/14 11:48:33;;;;;;;21.52;12.35;;;;;;;;;;5034486;28;20033;-70
2021/12/14 11:51:00;;;;;;;17.55;10.30;;;;;;;;;;5034402;28;20509;-68
2021/12/14 11:53:26;;;;;;;14.15;8.40;;;;;;;;;;5034909;28;20030;-70
2021/12/14 11:55:55;;;;;;;20.90;11.05;;;;;;;;;;5034517;28;20033;-69
2021/12/14 11:58:26;;;;;;;25.45;13.45;;;;;;;;;;5033592;28;20025;-70
2021/12/14 12:00:55;;;;;;;24.00;14.07;;;;;;;;;;5031824;28;20041;-70
2021/12/14 12:03:48;;;;;;;19.90;11.13;;;;;;;;;;5031969;28;20090;-69
2021/12/14 12:11:49;;;;;;;26.25;11.63;;;;;;;;;;5033696;28;20111;-71
2021/12/14 12:14:24;;;;;;;23.48;13.10;;;;;;;;;;5033079;28;20021;-68
2021/12/14 12:16:51;;;;;;;30.02;14.80;;;;;;;;;;5032613;28;20029;-68
2021/12/14 12:19:22;;;;;;;25.70;15.63;;;;;;;;;;5033889;28;20049;-68
2021/12/14 12:21:50;;;;;;;23.25;12.52;;;;;;;;;;5033307;28;20108;-68
2021/12/14 12:24:38;;;;;;;21.25;12.25;;;;;;;;;;5033454;28;20078;-68
2021/12/14 12:27:16;;;;;;;20.67;11.23;;;;;;;;;;5033883;28;20462;-69
2021/12/14 12:29:45;;;;;;;22.25;11.98;;;;;;;;;;5032834;28;20028;-69
2021/12/14 12:32:21;;;;;;;20.25;11.40;;;;;;;;;;5034031;28;20512;-69
2021/12/14 12:34:49;;;;;;;20.80;11.07;;;;;;;;;;5029311;28;20075;-69
2021/12/14 12:37:16;;;;;;;19.80;12.20;;;;;;;;;;5031802;28;20029;-67
2021/12/14 12:39:50;;;;;;;18.48;11.40;;;;;;;;;;5034455;28;20075;-69
2021/12/14 12:42:16;;;;;;;24.65;14.55;;;;;;;;;;5034178;28;20067;-68
2021/12/14 12:44:43;;;;;;;17.58;11.10;;;;;;;;;;5033693;28;20026;-69
2021/12/14 12:47:20;;;;;;;17.17;9.93;;;;;;;;;;5026863;28;20374;-70
2021/12/14 12:49:51;;;;;;;21.70;11.80;;;;;;;;;;5033842;28;20017;-69
2021/12/14 12:52:30;;;;;;;20.88;12.40;;;;;;;;;;5031784;28;20094;-70
2021/12/14 12:55:00;;;;;;;20.92;13.02;;;;;;;;;;5032151;28;20018;-69
2021/12/14 12:57:30;;;;;;;19.52;13.30;;;;;;;;;;5031829;28;20029;-71
2021/12/14 12:59:56;;;;;;;15.88;10.05;;;;;;;;;;5031154;28;20045;-70
2021/12/14 13:02:31;;;;;;;24.92;13.48;;;;;;;;;;5032975;28;20112;-69
2021/12/14 13:05:14;;;;;;;20.25;12.95;;;;;;;;;;5032703;28;20025;-67
2021/12/14 13:07:45;;;;;;;23.27;13.75;;;;;;;;;;5034127;28;20029;-69
2021/12/14 13:10:11;;;;;;;20.77;13.38;;;;;;;;;;5033345;28;20025;-67
2021/12/14 13:12:47;;;;;;;28.63;18.13;;;;;;;;;;5029682;28;20022;-72
2021/12/14 13:15:31;;;;;;;20.23;12.68;;;;;;;;;;5033057;28;20099;-69
2021/12/14 13:18:16;;;;;;;22.13;12.40;;;;;;;;;;5033245;28;20044;-69
2021/12/14 13:20:44;;;;;;;19.25;11.77;;;;;;;;;;5033534;28;20038;-69
2021/12/14 13:23:12;;;;;;;18.33;10.68;;;;;;;;;;5033052;28;20057;-67
2021/12/14 13:25:40;;;;;;;19.58;11.57;;;;;;;;;;5033143;28;20032;-68
2021/12/14 13:28:06;;;;;;;20.38;10.85;;;;;;;;;;5033456;28;20049;-67
2021/12/14 13:30:33;;;;;;;24.55;11.05;;;;;;;;;;5028376;28;20037;-69
2021/12/14 13:32:59;;;;;;;19.40;10.57;;;;;;;;;;5032990;28;20375;-68
2021/12/14 13:35:28;;;;;;;22.60;13.20;;;;;;;;;;5033098;28;20105;-67
2021/12/14 13:38:05;;;;;;;17.42;10.77;;;;;;;;;;5033044;28;20474;-69
2021/12/14 13:40:33;;;;;;;22.42;12.88;;;;;;;;;;5032483;28;20073;-69
2021/12/14 13:43:12;;;;;;;20.65;12.63;;;;;;;;;;5033325;28;20397;-68
2021/12/14 13:45:43;;;;;;;24.48;13.63;;;;;;;;;;5032625;28;20378;-67
2021/12/14 13:48:11;;;;;;;27.83;16.02;;;;;;;;;;5032773;28;20076;-67
2021/12/14 13:50:41;;;;;;;24.33;14.70;;;;;;;;;;5033006;28;20493;-67
2021/12/14 13:53:08;;;;;;;24.25;14.00;;;;;;;;;;5032500;28;20030;-68
2021/12/14 13:55:37;;;;;;;21.67;13.23;;;;;;;;;;5031520;28;20055;-68
2021/12/14 13:58:18;;;;;;;20.13;12.02;;;;;;;;;;5033117;28;20025;-70
2021/12/14 14:00:44;;;;;;;31.17;18.00;;;;;;;;;;5032024;28;20029;-70
2021/12/14 14:03:11;;;;;;;27.17;14.85;;;;;;;;;;5033080;28;20029;-70
2021/12/14 14:05:38;;;;;;;27.13;14.77;;;;;;;;;;5027574;28;20420;-70
2021/12/14 14:08:16;;;;;;;25.75;14.48;;;;;;;;;;5031446;28;20036;-70
2021/12/14 14:10:44;;;;;;;34.60;17.23;;;;;;;;;;5033264;28;20030;-70
2021/12/14 14:13:12;;;;;;;25.48;15.30;;;;;;;;;;5033500;28;20026;-69
2021/12/14 14:15:41;;;;;;;29.42;15.77;;;;;;;;;;5033319;28;20022;-70
2021/12/14 14:18:09;;;;;;;24.25;12.57;;;;;;;;;;5033028;28;20048;-69
2021/12/14 14:20:38;;;;;;;22.83;12.43;;;;;;;;;;5032862;28;20034;-69
2021/12/14 14:23:07;;;;;;;25.33;14.93;;;;;;;;;;5032578;28;20029;-71
2021/12/14 14:25:37;;;;;;;28.55;15.93;;;;;;;;;;5033050;28;20438;-70
2021/12/14 14:28:04;;;;;;;29.83;15.93;;;;;;;;;;5033069;28;20026;-71
2021/12/14 14:30:37;;;;;;;32.53;17.48;;;;;;;;;;5032900;28;20370;-70
2021/12/14 14:33:12;;;;;;;;;;;;;;;;;;5032194;28;20026;-71
2021/12/14 14:35:39;;;;;;;33.42;18.85;;;;;;;;;;5032720;28;19912;-70
2021/12/14 14:38:24;;;;;;;30.90;16.95;;;;;;;;;;5032901;28;20018;-70
2021/12/14 14:40:50;;;;;;;37.85;18.85;;;;;;;;;;5032856;28;20040;-71
2021/12/14 14:43:16;;;;;;;30.45;17.85;;;;;;;;;;5032539;28;20028;-70
2021/12/14 14:45:44;;;;;;;25.38;17.05;;;;;;;;;;5032876;28;20509;-70
2021/12/14 14:48:21;;;;;;;25.92;17.73;;;;;;;;;;5032984;28;20052;-70
2021/12/14 14:50:48;;;;;;;26.75;15.65;;;;;;;;;;5032403;28;20041;-70
2021/12/14 14:53:16;;;;;;;22.25;13.35;;;;;;;;;;5032787;28;20026;-70
2021/12/14 14:55:45;;;;;;;26.27;15.85;;;;;;;;;;5032698;28;20025;-70
2021/12/14 14:58:19;;;;;;;29.25;14.48;;;;;;;;;;5032501;28;20021;-70
2021/12/14 15:00:54;;;;;;;22.67;14.50;;;;;;;;;;5032686;28;20113;-70
2021/12/14 15:03:33;;;;;;;25.20;14.85;;;;;;;;;;5032738;28;20087;-70
2021/12/14 15:06:02;;;;;;;26.70;14.80;;;;;;;;;;5032218;28;20493;-70
2021/12/14 15:08:31;;;;;;;27.33;16.73;;;;;;;;;;5035487;28;20056;-70
2021/12/14 15:11:03;;;;;;;25.60;15.30;;;;;;;;;;5036132;28;20033;-70
2021/12/14 15:13:32;;;;;;;28.70;16.90;;;;;;;;;;5036285;28;20022;-72
2021/12/14 15:16:07;;;;;;;22.02;14.40;;;;;;;;;;5036461;28;20053;-71
2021/12/14 15:18:42;;;;;;;25.40;13.65;;;;;;;;;;5035679;28;20506;-71
2021/12/14 15:21:27;;;;;;;30.63;18.23;;;;;;;;;;5036149;28;20037;-71
2021/12/14 15:23:54;;;;;;;23.90;12.93;;;;;;;;;;5036173;28;20371;-70
2021/12/14 15:26:21;;;;;;;26.00;13.07;;;;;;;;;;5035534;28;20051;-70